Albardon, Argentina
Current Conditions -  °F | °C
As of 3:00 AM on Saturday 29 Nov 2014 (Local Time) from SAME Reporting Station
Clear Clear  
Wind Chill: 22°   Ceiling: Unl
Heat Index: 22°   Visibility: 6mi
Dew Point:   Wind: 3mph
Humidity: 43%   Direction: 180°S
Pressure: 29.53"   Gusts: NA
Location:  31.43°S, 68.53°W
Report Text: SAME 290600Z 18003KT CAVOK 22/09 Q1000
Loading
Personal Weather Stations






























Interactive Weather Map New forecast layout! Learn more

10-Day Weather Forecast

Advertisements
Track Severe Weather on mobile